Yeovilton

ADDS - METARS form results

Output produced by METARs form (1125 UTC 19 December 2018)
found at http://www.aviationweather.gov/metar/data/
 
METAR text: EGDY 191050Z 19007KT 9999 FEW015CB FEW018TCU 09/06 Q1005 BLU NOSIG
Conditions at: EGDY (YEOVILTON (NAVY), GB) observed 1050 UTC 19 December 2018
Temperature: 9.0°C (48°F)
Dewpoint: 6.0°C (43°F) [RH = 81%]
Pressure (altimeter): 29.68 inches Hg (1005.0 mb)
Winds: from the S (190 degrees) at 8 MPH (7 knots; 3.6 m/s)
Visibility: 6 or more miles (10+ km)
Ceiling: at least 12,000 feet AGL
Clouds: few clouds at 1500 feet AGL
few clouds at 1800 feet AGL
Weather: no significant weather observed at this time

Forecast for: EGDY (YEOVILTON (NAVY), GB)
Text: TAF EGDY 191037Z 1912/1921 21010KT 9999 SCT040
Forecast period: 1200 to 2100 UTC 19 December 2018
Forecast type: FROM: standard forecast or significant change
Winds: from the SSW (210 degrees) at 12 MPH (10 knots; 5.1 m/s)
Visibility: 6 or more miles 10+ km)
Ceiling: at least 12,000 feet AGL
Clouds: scattered clouds at 4000 feet AGL
Weather: no significant weather forecast for this period
Text: PROB40
Forecast period: 1200 to 2100 UTC 19 December 2018
Forecast type: TEMPORARY: The following changes expected for less than half the time period
Winds: from the SSW (210 degrees) at 12 MPH (10 knots; 5.1 m/s)
gusting to 29 MPH (25 knots; 12.9 m/s)
Visibility: 2.49 miles (4.01 km)
Ceiling: 2000 feet AGL
Clouds: scattered clouds at 1000 feet AGL
broken clouds at 2000 feet AGL
Weather: SHRA  (rain showers)
Text: TEMPO 1912/1921 21010G25KT 4000 SHRA SCT010 BKN020CB
Forecast period: 1600 to 2100 UTC 19 December 2018
Forecast type: TEMPORARY: The following changes expected for less than half the time period
Visibility: 1.55 miles (2.49 km)
Ceiling: 1500 feet AGL
Clouds: scattered clouds at 800 feet AGL
broken clouds at 1500 feet AGL
Weather: +SHRA +SHGS  (heavy rain showers, unknown weather)


Bournemouth

ADDS - METARS form results

Output produced by METARs form (1125 UTC 19 December 2018)
found at http://www.aviationweather.gov/metar/data/
 
METAR text: EGHH 191120Z 22004KT 9999 SCT038CB 07/06 Q1006 RESHRA
Conditions at: EGHH (BOURNEMOUTH AIRP, GB) observed 1120 UTC 19 December 2018
Temperature: 7.0°C (45°F)
Dewpoint: 6.0°C (43°F) [RH = 93%]
Pressure (altimeter): 29.70 inches Hg (1006.0 mb)
Winds: from the SW (220 degrees) at 5 MPH (4 knots; 2.1 m/s)
Visibility: 6 or more miles (10+ km)
Ceiling: at least 12,000 feet AGL
Clouds: scattered clouds at 3800 feet AGL
Weather: no significant weather observed at this time

METAR text: EGHH 191050Z 23006KT 9999 FEW032CB 08/05 Q1006 RESHRA
Conditions at: EGHH (BOURNEMOUTH AIRP, GB) observed 1050 UTC 19 December 2018
Temperature: 8.0°C (46°F)
Dewpoint: 5.0°C (41°F) [RH = 81%]
Pressure (altimeter): 29.70 inches Hg (1006.0 mb)
Winds: from the SW (230 degrees) at 7 MPH (6 knots; 3.1 m/s)
Visibility: 6 or more miles (10+ km)
Ceiling: at least 12,000 feet AGL
Clouds: few clouds at 3200 feet AGL
Weather: no significant weather observed at this time

Forecast for: EGHH (BOURNEMOUTH AIRP, GB)
Text: TAF EGHH 191101Z 1912/1921 23008KT 9999 SCT035
Forecast period: 1200 to 2100 UTC 19 December 2018
Forecast type: FROM: standard forecast or significant change
Winds: from the SW (230 degrees) at 9 MPH (8 knots; 4.1 m/s)
Visibility: 6 or more miles 10+ km)
Ceiling: at least 12,000 feet AGL
Clouds: scattered clouds at 3500 feet AGL
Weather: no significant weather forecast for this period
Text: TEMPO 1912/1921 7000 SHRA
Forecast period: 1200 to 2100 UTC 19 December 2018
Forecast type: TEMPORARY: The following changes expected for less than half the time period
Visibility: 4 miles (7 km)
Ceiling: unknown
Clouds: missing
Weather: SHRA  (rain showers)
Text: PROB30
Forecast period: 1600 to 2100 UTC 19 December 2018
Forecast type: TEMPORARY: The following changes expected for less than half the time period
Winds: from the SW (230 degrees) at 17 MPH (15 knots; 7.7 m/s)
gusting to 29 MPH (25 knots; 12.9 m/s)
Visibility: 2.49 miles (4.01 km)
Ceiling: 1400 feet AGL
Clouds: broken clouds at 1400 feet AGL
broken clouds at 2500 feet AGL
Weather: +SHRA  (heavy rain showers)


Boscombe

ADDS - METARS form results

Output produced by METARs form (1125 UTC 19 December 2018)
found at http://www.aviationweather.gov/metar/data/
 
METAR text: EGDM 191052Z 20007KT 9999 -SHRA FEW015CB 06/05 Q1005 BLU NOSIG
Conditions at: EGDM (BOSCOMBE DOWN , GB) observed 1052 UTC 19 December 2018
Temperature: 6.0°C (43°F)
Dewpoint: 5.0°C (41°F) [RH = 93%]
Pressure (altimeter): 29.68 inches Hg (1005.0 mb)
Winds: from the SSW (200 degrees) at 8 MPH (7 knots; 3.6 m/s)
Visibility: 6 or more miles (10+ km)
Ceiling: at least 12,000 feet AGL
Clouds: few clouds at 1500 feet AGL
Weather: -SHRA  (light rain showers)

METAR text: EGDM 191050Z AUTO 20007KT 9999 BKN070/// 06/05 Q1005
Conditions at: EGDM (BOSCOMBE DOWN , GB) observed 1050 UTC 19 December 2018
Temperature: 6.0°C (43°F)
Dewpoint: 5.0°C (41°F) [RH = 93%]
Pressure (altimeter): 29.68 inches Hg (1005.0 mb)
Winds: from the SSW (200 degrees) at 8 MPH (7 knots; 3.6 m/s)
Visibility: 6 or more miles (10+ km)
Ceiling: 7000 feet AGL
Clouds: broken clouds at 7000 feet AGL
Weather: no significant weather observed at this time

Forecast for: EGDM (BOSCOMBE DOWN , GB)
Text: TAF EGDM 191049Z 1912/1919 20013KT 9999 SCT035
Forecast period: 1200 to 1900 UTC 19 December 2018
Forecast type: FROM: standard forecast or significant change
Winds: from the SSW (200 degrees) at 15 MPH (13 knots; 6.7 m/s)
Visibility: 6 or more miles 10+ km)
Ceiling: at least 12,000 feet AGL
Clouds: scattered clouds at 3500 feet AGL
Weather: no significant weather forecast for this period
Text: PROB40
Forecast period: 1700 to 1900 UTC 19 December 2018
Forecast type: TEMPORARY: The following changes expected for less than half the time period
Winds: from the SSW (200 degrees) at 20 MPH (17 knots; 8.7 m/s)
gusting to 31 MPH (27 knots; 13.9 m/s)
Visibility: 3 miles (5 km)
Ceiling: 1400 feet AGL
Clouds: broken clouds at 1400 feet AGL
Weather: SHRA  (rain showers)


Bristol

ADDS - METARS form results

Output produced by METARs form (1125 UTC 19 December 2018)
found at http://www.aviationweather.gov/metar/data/
 
METAR text: EGGD 191120Z AUTO 20008KT 170V240 9999 NCD 08/06 Q1004
Conditions at: EGGD (BRISTOL/LULSGATE, GB) observed 1120 UTC 19 December 2018
Temperature: 8.0°C (46°F)
Dewpoint: 6.0°C (43°F) [RH = 87%]
Pressure (altimeter): 29.65 inches Hg (1004.0 mb)
Winds: from the SSW (200 degrees) at 9 MPH (8 knots; 4.1 m/s)
Visibility: 6 or more miles (10+ km)
Ceiling: at least 12,000 feet AGL
Clouds: sky clear below 12,000 feet AGL
Weather: no significant weather observed at this time

METAR text: EGGD 191050Z AUTO 20009KT 160V230 9999 NCD 08/06 Q1004
Conditions at: EGGD (BRISTOL/LULSGATE, GB) observed 1050 UTC 19 December 2018
Temperature: 8.0°C (46°F)
Dewpoint: 6.0°C (43°F) [RH = 87%]
Pressure (altimeter): 29.65 inches Hg (1004.0 mb)
Winds: from the SSW (200 degrees) at 10 MPH (9 knots; 4.6 m/s)
Visibility: 6 or more miles (10+ km)
Ceiling: at least 12,000 feet AGL
Clouds: sky clear below 12,000 feet AGL
Weather: no significant weather observed at this time

Forecast for: EGGD (BRISTOL/LULSGATE, GB)
Text: TAF EGGD 191059Z 1912/2012 21010KT 9999 SCT020
Forecast period: 1200 UTC 19 December 2018 to 1200 UTC 20 December 2018
Forecast type: FROM: standard forecast or significant change
Winds: from the SSW (210 degrees) at 12 MPH (10 knots; 5.1 m/s)
Visibility: 6 or more miles 10+ km)
Ceiling: at least 12,000 feet AGL
Clouds: scattered clouds at 2000 feet AGL
Weather: no significant weather forecast for this period
Text: TEMPO 1916/2004 21015G25KT 3000 +SHRA BKN008 BKN015CB
Forecast period: 1600 UTC 19 December 2018 to 0400 UTC 20 December 2018
Forecast type: TEMPORARY: The following changes expected for less than half the time period
Winds: from the SSW (210 degrees) at 17 MPH (15 knots; 7.7 m/s)
gusting to 29 MPH (25 knots; 12.9 m/s)
Visibility: 1.86 miles (2.99 km)
Ceiling: 800 feet AGL
Clouds: broken clouds at 800 feet AGL
broken clouds at 1500 feet AGL
Weather: +SHRA  (heavy rain showers)
Text: TEMPO 2004/2012 7000 SHRA BKN011
Forecast period: 0400 to 1200 UTC 20 December 2018
Forecast type: TEMPORARY: The following changes expected for less than half the time period
Visibility: 4 miles (7 km)
Ceiling: 1100 feet AGL
Clouds: broken clouds at 1100 feet AGL
Weather: SHRA  (rain showers)






Experience Flights